createdAt,value
2018-07-01T00:00:14.131Z,15.20
2018-07-01T00:02:47.914Z,15.10
2018-07-01T00:05:24.936Z,15.00
2018-07-01T00:08:03.291Z,15.00
2018-07-01T00:10:38.989Z,14.90
2018-07-01T00:13:11.058Z,14.80
2018-07-01T00:15:47.409Z,14.80
2018-07-01T00:18:20.171Z,14.80
2018-07-01T00:20:48.312Z,14.70
2018-07-01T00:23:16.446Z,14.70
2018-07-01T00:25:45.653Z,14.60
2018-07-01T00:28:13.813Z,14.70
2018-07-01T00:30:44.423Z,14.70
2018-07-01T00:33:12.645Z,14.70
2018-07-01T00:38:08.810Z,14.60
2018-07-01T00:40:37.070Z,14.50
2018-07-01T00:43:08.541Z,14.60
2018-07-01T00:45:39.129Z,14.50
2018-07-01T00:48:10.683Z,14.50
2018-07-01T00:53:12.942Z,14.30
2018-07-01T00:55:45.347Z,14.30
2018-07-01T01:00:45.977Z,14.20
2018-07-01T01:03:17.545Z,14.20
2018-07-01T01:05:48.370Z,14.20
2018-07-01T01:08:21.546Z,14.10
2018-07-01T01:10:51.795Z,14.10
2018-07-01T01:15:50.739Z,14.00
2018-07-01T01:18:19.550Z,14.00
2018-07-01T01:20:51.683Z,14.00
2018-07-01T01:23:22.988Z,14.00
2018-07-01T01:25:54.359Z,14.00
2018-07-01T01:28:29.200Z,14.00
2018-07-01T01:30:59.249Z,13.90
2018-07-01T01:33:33.464Z,13.90
2018-07-01T01:36:01.833Z,13.90
2018-07-01T01:38:32.997Z,13.90
2018-07-01T01:41:11.539Z,13.80
2018-07-01T01:43:52.904Z,13.80
2018-07-01T01:48:32.830Z,13.70
2018-07-01T01:51:11.836Z,13.70
2018-07-01T01:53:47.712Z,13.70
2018-07-01T01:56:23.961Z,13.60
2018-07-01T01:59:06.655Z,13.50
2018-07-01T02:04:40.065Z,13.40
2018-07-01T02:07:18.082Z,13.20
2018-07-01T02:09:49.089Z,13.20
2018-07-01T02:12:19.173Z,13.10
2018-07-01T02:15:53.910Z,13.00
2018-07-01T02:18:23.021Z,13.00
2018-07-01T02:20:53.897Z,13.00
2018-07-01T02:23:34.789Z,12.90
2018-07-01T02:26:04.691Z,12.80
2018-07-01T02:28:33.890Z,12.80
2018-07-01T02:31:04.649Z,12.70
2018-07-01T02:36:07.403Z,12.70
2018-07-01T02:38:39.274Z,12.60
2018-07-01T02:41:09.154Z,12.50
2018-07-01T02:43:41.392Z,12.60
2018-07-01T02:48:41.770Z,12.50
2018-07-01T02:51:11.982Z,12.40
2018-07-01T02:56:14.538Z,12.30
2018-07-01T02:58:46.709Z,12.20
2018-07-01T03:01:16.187Z,12.20
2018-07-01T03:03:51.083Z,12.20
2018-07-01T03:06:21.334Z,12.10
2018-07-01T03:08:50.585Z,12.00
2018-07-01T03:11:19.036Z,12.10
2018-07-01T03:13:48.803Z,12.10
2018-07-01T03:16:18.670Z,12.00
2018-07-01T03:18:48.626Z,12.00
2018-07-01T03:23:46.354Z,11.90
2018-07-01T03:26:19.417Z,11.90
2018-07-01T03:28:48.696Z,11.80
2018-07-01T03:33:46.295Z,11.80
2018-07-01T03:36:16.237Z,11.80
2018-07-01T03:38:45.949Z,11.80
2018-07-01T03:41:14.354Z,11.80
2018-07-01T03:43:43.711Z,11.80
2018-07-01T03:46:13.043Z,11.70
2018-07-01T03:48:41.307Z,11.80
2018-07-01T03:51:09.712Z,11.80
2018-07-01T03:53:41.240Z,11.70
2018-07-01T03:56:09.666Z,11.80
2018-07-01T03:58:38.588Z,11.80
2018-07-01T04:01:07.897Z,11.90
2018-07-01T04:03:36.724Z,12.00
2018-07-01T04:06:06.072Z,12.00
2018-07-01T04:08:34.465Z,12.10
2018-07-01T04:11:03.793Z,12.10
2018-07-01T04:13:32.659Z,12.20
2018-07-01T04:16:01.939Z,12.30
2018-07-01T04:18:31.167Z,12.30
2018-07-01T04:20:59.626Z,12.30
2018-07-01T04:23:27.956Z,12.40
2018-07-01T04:25:57.038Z,12.50
2018-07-01T04:28:25.375Z,12.50
2018-07-01T04:30:54.347Z,12.60
2018-07-01T04:33:24.721Z,12.70
2018-07-01T04:35:54.000Z,12.70
2018-07-01T04:38:22.689Z,12.70
2018-07-01T04:40:52.463Z,12.80
2018-07-01T04:43:21.784Z,12.90
2018-07-01T04:45:50.369Z,12.90
2018-07-01T04:48:19.569Z,13.00
2018-07-01T04:50:47.978Z,13.00
2018-07-01T04:53:18.601Z,13.20
2018-07-01T04:55:47.099Z,13.20
2018-07-01T04:58:16.659Z,13.30
2018-07-01T05:00:45.136Z,13.40
2018-07-01T05:03:14.994Z,13.50
2018-07-01T05:05:43.460Z,13.50
2018-07-01T05:08:15.237Z,13.60
2018-07-01T05:10:44.258Z,13.70
2018-07-01T05:13:14.693Z,13.80
2018-07-01T05:15:43.200Z,13.80
2018-07-01T05:18:12.782Z,13.90
2018-07-01T05:23:09.384Z,14.20
2018-07-01T05:25:37.911Z,14.30
2018-07-01T05:28:06.747Z,14.40
2018-07-01T05:30:36.100Z,14.50
2018-07-01T05:33:05.496Z,14.50
2018-07-01T05:38:04.303Z,14.70
2018-07-01T05:40:34.289Z,14.70
2018-07-01T05:43:03.345Z,14.80
2018-07-01T05:45:32.232Z,14.90
2018-07-01T05:48:03.124Z,15.00
2018-07-01T05:50:32.019Z,15.00
2018-07-01T05:53:03.092Z,15.10
2018-07-01T05:55:31.442Z,15.20
2018-07-01T05:58:03.138Z,15.30
2018-07-01T06:00:33.028Z,15.30
2018-07-01T06:03:02.053Z,15.30
2018-07-01T06:05:32.848Z,15.40
2018-07-01T06:08:04.327Z,15.40
2018-07-01T06:13:02.384Z,15.60
2018-07-01T06:15:31.958Z,15.60
2018-07-01T06:18:00.868Z,15.70
2018-07-01T06:20:29.111Z,15.80
2018-07-01T06:22:57.895Z,15.90
2018-07-01T06:25:27.158Z,16.10
2018-07-01T06:27:55.333Z,16.20
2018-07-01T06:30:23.476Z,16.40
2018-07-01T06:32:51.644Z,16.50
2018-07-01T06:35:19.811Z,16.40
2018-07-01T06:37:47.964Z,16.50
2018-07-01T06:40:16.135Z,16.60
2018-07-01T06:42:44.308Z,16.80
2018-07-01T06:47:40.499Z,16.80
2018-07-01T06:50:08.728Z,16.90
2018-07-01T06:55:06.860Z,17.00
2018-07-01T06:57:36.598Z,17.10
2018-07-01T07:00:05.426Z,17.30
2018-07-01T07:02:34.423Z,17.20
2018-07-01T07:05:06.297Z,17.30
2018-07-01T07:07:36.264Z,17.50
2018-07-01T07:10:07.401Z,17.50
2018-07-01T07:12:36.808Z,17.40
2018-07-01T07:15:08.134Z,17.60
2018-07-01T07:17:39.647Z,17.60
2018-07-01T07:20:13.092Z,17.50
2018-07-01T07:22:46.296Z,17.50
2018-07-01T07:25:18.006Z,17.50
2018-07-01T07:27:48.488Z,17.60
2018-07-01T07:30:21.896Z,17.60
2018-07-01T07:37:55.633Z,17.60
2018-07-01T07:40:28.576Z,17.60
2018-07-01T07:43:02.105Z,17.60
2018-07-01T07:45:36.801Z,17.50
2018-07-01T07:50:47.733Z,17.60
2018-07-01T07:53:23.563Z,17.80
2018-07-01T07:55:55.002Z,17.80
2018-07-01T07:58:28.376Z,17.80
2018-07-01T08:01:04.195Z,18.00
2018-07-01T08:03:40.218Z,17.90
2018-07-01T08:06:12.434Z,18.10
2018-07-01T08:08:44.829Z,18.30
2018-07-01T08:11:16.123Z,18.20
2018-07-01T08:13:48.736Z,18.30
2018-07-01T08:16:28.255Z,18.40
2018-07-01T08:19:00.543Z,18.40
2018-07-01T08:24:05.846Z,18.30
2018-07-01T08:26:40.607Z,18.30
2018-07-01T08:29:16.446Z,18.20
2018-07-01T08:31:48.896Z,18.40
2018-07-01T08:34:25.918Z,18.60
2018-07-01T08:37:03.091Z,18.90
2018-07-01T08:39:35.864Z,18.80
2018-07-01T08:42:45.507Z,18.90
2018-07-01T08:45:22.625Z,19.00
2018-07-01T08:47:55.124Z,19.40
2018-07-01T08:50:26.974Z,19.90
2018-07-01T08:52:55.287Z,20.00
2018-07-01T08:55:23.944Z,20.10
2018-07-01T08:57:55.015Z,19.90
2018-07-01T09:00:28.385Z,19.90
2018-07-01T09:03:04.213Z,19.70
2018-07-01T09:05:36.830Z,19.70
2018-07-01T09:08:14.806Z,19.70
2018-07-01T09:10:47.560Z,19.80
2018-07-01T09:13:23.764Z,19.80
2018-07-01T09:15:58.435Z,19.60
2018-07-01T09:18:28.450Z,19.90
2018-07-01T09:21:00.769Z,20.10
2018-07-01T09:23:34.296Z,20.20
2018-07-01T09:28:45.686Z,20.10
2018-07-01T09:31:24.099Z,20.10
2018-07-01T09:33:58.866Z,20.30
2018-07-01T09:36:34.232Z,20.60
2018-07-01T09:39:10.217Z,20.60
2018-07-01T09:41:46.057Z,20.60
2018-07-01T09:44:18.529Z,20.30
2018-07-01T09:46:50.110Z,20.10
2018-07-01T09:49:22.712Z,20.10
2018-07-01T09:51:58.732Z,20.10
2018-07-01T09:54:30.489Z,20.10
2018-07-01T09:57:06.547Z,20.40
2018-07-01T09:59:42.568Z,20.30
2018-07-01T10:02:19.836Z,20.10
2018-07-01T10:09:52.579Z,20.20
2018-07-01T10:12:28.315Z,20.30
2018-07-01T10:15:02.800Z,20.40
2018-07-01T10:20:16.559Z,20.70
2018-07-01T10:22:49.187Z,20.90
2018-07-01T10:25:21.748Z,21.00
2018-07-01T10:27:59.807Z,20.80
2018-07-01T10:30:35.989Z,20.90
2018-07-01T10:33:10.393Z,21.00
2018-07-01T10:35:40.961Z,21.30
2018-07-01T10:38:09.529Z,20.80
2018-07-01T10:40:45.444Z,20.90
2018-07-01T10:43:19.058Z,21.20
2018-07-01T10:48:15.706Z,21.30
2018-07-01T10:50:45.182Z,21.60
2018-07-01T10:53:13.483Z,21.70
2018-07-01T10:55:41.805Z,21.40
2018-07-01T10:58:10.158Z,21.50
2018-07-01T11:03:06.253Z,22.20
2018-07-01T11:05:34.670Z,22.30
2018-07-01T11:08:04.264Z,22.30
2018-07-01T11:10:32.403Z,22.30
2018-07-01T11:13:02.166Z,22.40
2018-07-01T11:15:30.392Z,22.50
2018-07-01T11:18:00.049Z,22.50
2018-07-01T11:20:29.248Z,22.30
2018-07-01T11:22:57.558Z,22.40
2018-07-01T11:25:26.402Z,22.30
2018-07-01T11:27:54.598Z,22.30
2018-07-01T11:30:23.291Z,22.00
2018-07-01T11:35:19.406Z,22.30
2018-07-01T11:37:47.662Z,22.30
2018-07-01T11:40:16.575Z,22.30
2018-07-01T11:42:45.137Z,22.30
2018-07-01T11:45:13.376Z,22.30
2018-07-01T11:47:42.286Z,22.50
2018-07-01T11:50:10.544Z,22.40
2018-07-01T11:52:40.383Z,22.20
2018-07-01T11:55:08.656Z,22.50
2018-07-01T11:57:37.684Z,22.30
2018-07-01T12:00:06.282Z,22.50
2018-07-01T12:02:34.696Z,22.70
2018-07-01T12:05:16.658Z,22.80
2018-07-01T12:07:32.662Z,22.90
2018-07-01T12:10:01.654Z,22.90
2018-07-01T12:12:30.087Z,22.90
2018-07-01T12:14:58.533Z,23.10
2018-07-01T12:17:27.097Z,23.00
2018-07-01T12:20:00.530Z,22.90
2018-07-01T12:23:38.875Z,22.30
2018-07-01T12:26:07.880Z,22.40
2018-07-01T12:28:36.081Z,22.40
2018-07-01T12:31:04.319Z,22.60
2018-07-01T12:33:35.928Z,23.20
2018-07-01T12:36:09.858Z,23.20
2018-07-01T12:38:47.312Z,23.30
2018-07-01T12:41:22.156Z,23.60
2018-07-01T12:43:56.828Z,23.50
2018-07-01T12:46:33.551Z,23.20
2018-07-01T12:49:13.136Z,22.90
2018-07-01T12:51:49.160Z,22.60
2018-07-01T12:54:23.955Z,22.70
2018-07-01T12:56:58.453Z,22.70
2018-07-01T12:59:35.988Z,22.50
2018-07-01T13:02:08.477Z,22.60
2018-07-01T13:04:46.595Z,22.70
2018-07-01T13:07:25.811Z,22.70
2018-07-01T13:09:59.075Z,22.60
2018-07-01T13:12:38.602Z,22.80
2018-07-01T13:15:11.308Z,23.00
2018-07-01T13:17:46.178Z,23.10
2018-07-01T13:20:19.589Z,22.60
2018-07-01T13:22:51.987Z,22.50
2018-07-01T13:25:29.024Z,22.50
2018-07-01T13:28:01.552Z,22.40
2018-07-01T13:30:38.855Z,22.50
2018-07-01T13:33:12.717Z,22.80
2018-07-01T13:38:23.588Z,22.90
2018-07-01T13:41:00.989Z,22.90
2018-07-01T13:43:39.072Z,22.80
2018-07-01T13:46:15.314Z,22.60
2018-07-01T13:48:50.077Z,22.60
2018-07-01T13:51:28.595Z,22.60
2018-07-01T13:56:39.006Z,22.70
2018-07-01T14:01:53.684Z,22.90
2018-07-01T14:04:32.082Z,22.90
2018-07-01T14:07:11.306Z,22.90
2018-07-01T14:09:45.713Z,22.90
2018-07-01T14:12:18.523Z,23.20
2018-07-01T14:14:50.613Z,23.20
2018-07-01T14:17:22.203Z,23.20
2018-07-01T14:19:54.899Z,22.90
2018-07-01T14:22:31.139Z,22.70
2018-07-01T14:25:04.427Z,22.60
2018-07-01T14:27:39.700Z,22.80
2018-07-01T14:30:18.758Z,22.90
2018-07-01T14:32:51.501Z,23.10
2018-07-01T14:41:11.757Z,22.80
2018-07-01T14:43:48.857Z,22.70
2018-07-01T14:46:24.563Z,22.80
2018-07-01T14:48:59.634Z,22.80
2018-07-01T14:51:31.997Z,22.60
2018-07-01T14:56:44.828Z,22.50
2018-07-01T14:59:19.550Z,22.20
2018-07-01T15:04:24.388Z,22.10
2018-07-01T15:06:56.078Z,22.20
2018-07-01T15:09:30.841Z,22.30
2018-07-01T15:12:05.771Z,22.50
2018-07-01T15:14:33.919Z,22.60
2018-07-01T15:17:02.012Z,22.70
2018-07-01T15:19:30.881Z,22.60
2018-07-01T15:22:00.705Z,22.70
2018-07-01T15:24:28.785Z,22.50
2018-07-01T15:26:56.932Z,22.30
2018-07-01T15:32:00.192Z,22.20
2018-07-01T15:34:36.212Z,22.10
2018-07-01T15:37:10.121Z,21.60
2018-07-01T15:39:50.341Z,21.60
2018-07-01T15:42:26.326Z,21.50
2018-07-01T15:45:02.230Z,21.50
2018-07-01T15:47:38.810Z,21.50
2018-07-01T15:50:11.373Z,21.50
2018-07-01T15:52:53.524Z,21.70
2018-07-01T15:55:31.841Z,21.80
2018-07-01T15:58:08.199Z,22.10
2018-07-01T16:00:40.718Z,22.20
2018-07-01T16:03:08.901Z,22.00
2018-07-01T16:05:39.531Z,22.00
2018-07-01T16:08:07.709Z,21.80
2018-07-01T16:10:36.932Z,21.70
2018-07-01T16:13:05.888Z,21.60
2018-07-01T16:15:34.217Z,21.50
2018-07-01T16:18:02.548Z,21.30
2018-07-01T16:20:31.005Z,21.10
2018-07-01T16:22:59.184Z,21.00
2018-07-01T16:25:33.201Z,21.00
2018-07-01T16:28:08.476Z,21.00
2018-07-01T16:30:36.848Z,20.80
2018-07-01T16:33:05.750Z,20.70
2018-07-01T16:35:37.296Z,20.70
2018-07-01T16:38:11.056Z,20.60
2018-07-01T16:40:43.782Z,20.70
2018-07-01T16:43:19.488Z,20.60
2018-07-01T16:45:51.002Z,20.40
2018-07-01T16:48:28.216Z,20.40
2018-07-01T16:51:04.215Z,20.30
2018-07-01T16:53:36.684Z,20.30
2018-07-01T16:56:12.697Z,20.50
2018-07-01T16:58:49.466Z,20.30
2018-07-01T17:04:03.071Z,20.30
2018-07-01T17:06:42.230Z,20.30
2018-07-01T17:10:00.668Z,20.30
2018-07-01T17:12:50.167Z,20.30
2018-07-01T17:16:08.986Z,20.20
2018-07-01T17:34:48.789Z,19.40
2018-07-01T19:27:55.200Z,19.60
2018-07-01T19:30:40.586Z,18.20
2018-07-01T19:33:10.199Z,18.10
2018-07-01T19:35:41.144Z,18.10
2018-07-01T19:38:10.148Z,18.10
2018-07-01T19:40:39.833Z,18.20
2018-07-01T19:43:09.131Z,18.20
2018-07-01T19:45:37.715Z,18.20
2018-07-01T19:48:06.869Z,18.20
2018-07-01T19:53:23.243Z,18.20
2018-07-01T19:55:52.069Z,18.20
2018-07-01T20:00:57.769Z,18.30
2018-07-01T20:03:37.848Z,18.30
2018-07-01T20:06:26.732Z,18.30
2018-07-01T20:08:59.451Z,18.20
2018-07-01T20:11:57.801Z,18.20
2018-07-01T20:14:31.838Z,18.20
2018-07-01T20:17:06.650Z,18.20
2018-07-01T20:19:39.066Z,18.10
2018-07-01T20:22:11.517Z,18.10
2018-07-01T20:27:24.245Z,18.00
2018-07-01T20:32:34.073Z,18.00
2018-07-01T20:35:06.768Z,18.00
2018-07-01T20:37:44.969Z,18.00
2018-07-01T20:40:22.819Z,17.90
2018-07-01T20:42:55.213Z,17.90
2018-07-01T20:45:27.235Z,17.90
2018-07-01T20:48:00.580Z,17.80
2018-07-01T20:50:35.750Z,17.80
2018-07-01T20:53:19.512Z,17.70
2018-07-01T20:55:56.208Z,17.70
2018-07-01T20:58:36.381Z,17.70
2018-07-01T21:01:07.759Z,17.70
2018-07-01T21:03:35.976Z,17.60
2018-07-01T21:06:07.134Z,17.50
2018-07-01T21:08:36.109Z,17.40
2018-07-01T21:11:04.261Z,17.40
2018-07-01T21:13:32.923Z,17.50
2018-07-01T21:16:01.818Z,17.50
2018-07-01T21:20:57.941Z,17.40
2018-07-01T21:23:26.955Z,17.40
2018-07-01T21:25:55.060Z,17.40
2018-07-01T21:28:23.156Z,17.40
2018-07-01T21:30:52.317Z,17.40
2018-07-01T21:33:20.436Z,17.40
2018-07-01T21:35:49.379Z,17.40
2018-07-01T21:38:18.526Z,17.30
2018-07-01T21:40:46.694Z,17.20
2018-07-01T21:43:24.007Z,17.20
2018-07-01T21:45:59.891Z,17.20
2018-07-01T21:48:35.928Z,17.20
2018-07-01T21:51:10.045Z,17.20
2018-07-01T21:53:46.201Z,17.20
2018-07-01T21:56:18.245Z,17.20
2018-07-01T21:58:53.277Z,17.20
2018-07-01T22:01:25.823Z,17.20
2018-07-01T22:04:01.651Z,17.10
2018-07-01T22:06:42.477Z,17.10
2018-07-01T22:09:11.787Z,17.10
2018-07-01T22:11:58.250Z,17.10
2018-07-01T22:14:31.968Z,17.00
2018-07-01T22:17:00.868Z,17.00
2018-07-01T22:19:29.350Z,17.00
2018-07-01T22:21:58.038Z,16.90
2018-07-01T22:24:29.535Z,16.80
2018-07-01T22:26:58.045Z,16.80
2018-07-01T22:29:27.150Z,16.80
2018-07-01T22:31:55.383Z,16.90
2018-07-01T22:34:24.031Z,16.70
2018-07-01T22:36:55.457Z,16.70
2018-07-01T22:39:32.019Z,16.70
2018-07-01T22:42:10.413Z,16.60
2018-07-01T22:44:43.926Z,16.60
2018-07-01T22:47:21.719Z,16.70
2018-07-01T22:49:57.240Z,16.70
2018-07-01T22:52:30.859Z,16.70
2018-07-01T22:55:03.340Z,16.70
2018-07-01T22:57:44.067Z,16.80
2018-07-01T23:00:20.172Z,16.70
2018-07-01T23:03:05.533Z,16.70
2018-07-01T23:05:41.134Z,16.70
2018-07-01T23:08:15.564Z,16.60
2018-07-01T23:10:49.001Z,16.60
2018-07-01T23:13:22.928Z,16.50
2018-07-01T23:15:53.866Z,16.40
2018-07-01T23:18:30.091Z,16.40
2018-07-01T23:21:03.009Z,16.40
2018-07-01T23:23:38.815Z,16.30
2018-07-01T23:26:15.102Z,16.40
2018-07-01T23:28:44.116Z,16.30
2018-07-01T23:31:12.503Z,16.30
2018-07-01T23:33:41.004Z,16.30
2018-07-01T23:36:09.135Z,16.30
2018-07-01T23:41:06.140Z,16.40
2018-07-01T23:43:34.480Z,16.30
2018-07-01T23:46:02.624Z,16.30
2018-07-01T23:48:30.711Z,16.30
2018-07-01T23:50:58.830Z,16.30
2018-07-01T23:55:57.984Z,16.10
2018-07-01T23:58:26.193Z,16.10
